Time;durP1;ratioP1;P1;durP2;ratioP2;P2;SDS_P1;SDS_P2;PMS_P1;PMS_P2;Temp;Humidity;BMP_temperature;BMP_pressure;BME280_temperature;BME280_humidity;BME280_pressure;Samples;Min_cycle;Max_cycle;Signal;HPM_P1;HPM_P2
2022/08/31 00:04:14;;;;;;;1999.90;999.90;;;;;;;21.68;56.16;98703.25;4169421;28;20776;-49
2022/08/31 00:06:16;;;;;;;1999.90;999.90;;;;;;;21.68;56.92;98706.03;4154902;28;20204;-49
2022/08/31 00:08:17;;;;;;;1999.90;999.90;;;;;;;21.75;56.91;98720.34;4149692;28;20661;-50
2022/08/31 00:10:20;;;;;;;1999.90;999.90;;;;;;;21.49;56.57;98710.94;4180470;28;20265;-49
2022/08/31 00:12:35;;;;;;;1999.90;999.90;;;;;;;21.31;57.04;98712.75;4165551;28;20215;-50
2022/08/31 00:14:36;;;;;;;1999.90;999.90;;;;;;;21.30;57.09;98713.09;4154009;28;20311;-50
2022/08/31 00:16:39;;;;;;;1999.90;999.90;;;;;;;21.38;57.13;98715.13;4139962;28;20228;-49
2022/08/31 00:18:41;;;;;;;1999.90;999.90;;;;;;;21.38;57.37;98715.13;4164133;28;20448;-50
2022/08/31 00:20:44;;;;;;;1999.90;999.90;;;;;;;21.36;57.53;98717.38;4148911;28;20232;-49
2022/08/31 00:22:46;;;;;;;1999.90;999.90;;;;;;;21.39;57.59;98716.75;4158093;28;20647;-49
2022/08/31 00:24:48;;;;;;;1999.90;999.90;;;;;;;21.28;58.10;98709.78;4159095;28;20224;-50
2022/08/31 00:26:50;;;;;;;1999.90;999.90;;;;;;;21.26;58.30;98712.06;4147888;28;20216;-50
2022/08/31 00:28:52;;;;;;;1999.90;999.90;;;;;;;21.28;58.49;98720.91;4165634;28;20658;-49
2022/08/31 00:30:53;;;;;;;1999.90;999.90;;;;;;;21.29;58.79;98728.13;4144790;28;20716;-49
2022/08/31 00:32:55;;;;;;;1999.90;999.90;;;;;;;21.29;59.02;98719.75;4153878;28;20251;-50
2022/08/31 00:35:02;;;;;;;1999.90;999.90;;;;;;;21.31;59.30;98726.66;4156662;28;20215;-50
2022/08/31 00:37:04;;;;;;;1999.90;999.90;;;;;;;21.35;59.47;98724.06;4181815;28;20619;-50
2022/08/31 00:39:06;;;;;;;1999.90;999.90;;;;;;;21.36;59.68;98722.94;4132558;28;20235;-50
2022/08/31 00:41:09;;;;;;;1999.90;999.90;;;;;;;21.37;60.07;98724.63;4152074;28;20212;-51
2022/08/31 00:43:34;;;;;;;1999.90;999.90;;;;;;;21.48;60.56;98726.00;4147020;28;20212;-50
2022/08/31 00:45:36;;;;;;;1999.90;999.90;;;;;;;21.38;59.85;98720.69;4140291;28;20205;-50
2022/08/31 00:47:37;;;;;;;1999.90;999.90;;;;;;;21.41;60.19;98720.03;4159988;28;20696;-49
2022/08/31 00:49:40;;;;;;;1999.90;999.90;;;;;;;21.23;59.12;98719.06;4149740;28;20211;-51
2022/08/31 00:51:48;;;;;;;1999.90;999.90;;;;;;;21.17;59.03;98719.53;4168941;28;20623;-50
2022/08/31 00:53:51;;;;;;;1999.90;999.90;;;;;;;21.11;59.30;98704.06;4152188;28;20756;-50
2022/08/31 00:55:53;;;;;;;1999.90;999.90;;;;;;;21.10;59.63;98708.00;4151677;28;20197;-51
2022/08/31 00:57:57;;;;;;;1999.90;999.90;;;;;;;21.08;59.39;98704.69;4166243;28;20228;-50
2022/08/31 01:00:01;;;;;;;1999.90;999.90;;;;;;;21.11;59.73;98698.50;4147518;28;20216;-49
2022/08/31 01:02:06;;;;;;;1999.90;999.90;;;;;;;21.13;59.72;98697.06;4164782;28;20203;-51
2022/08/31 01:04:08;;;;;;;1999.90;999.90;;;;;;;21.14;59.65;98697.84;4153386;28;20319;-50
2022/08/31 01:06:10;;;;;;;1999.90;999.90;;;;;;;21.17;59.78;98700.03;4166512;28;20216;-49
2022/08/31 01:08:12;;;;;;;1999.90;999.90;;;;;;;21.15;59.69;98697.56;4161039;28;20710;-50
2022/08/31 01:10:15;;;;;;;1999.90;999.90;;;;;;;21.15;60.05;98694.78;4157426;28;20219;-49
2022/08/31 01:12:17;;;;;;;1999.90;999.90;;;;;;;21.14;60.21;98707.03;4168588;28;20624;-50
2022/08/31 01:14:19;;;;;;;1999.90;999.90;;;;;;;21.12;60.34;98694.56;4158892;28;20193;-50
2022/08/31 01:16:37;;;;;;;1999.90;999.90;;;;;;;21.08;60.24;98702.72;4167272;28;20200;-49
2022/08/31 01:18:40;;;;;;;1999.90;999.90;;;;;;;21.03;60.76;98700.06;4170038;28;20239;-49
2022/08/31 01:21:40;;;;;;;1999.90;999.90;;;;;;;21.00;61.02;98702.63;4136460;28;20202;-49
2022/08/31 01:23:43;;;;;;;1999.90;999.90;;;;;;;21.00;61.13;98705.44;4120978;28;20320;-49
2022/08/31 01:25:46;;;;;;;1999.90;999.90;;;;;;;21.03;61.23;98710.34;4138840;28;20850;-49
2022/08/31 01:27:48;;;;;;;1872.70;999.90;;;;;;;21.02;61.52;98711.50;4170957;28;20231;-49
2022/08/31 01:29:49;;;;;;;1841.80;999.90;;;;;;;21.03;61.74;98710.34;4159482;28;20705;-49
2022/08/31 01:31:51;;;;;;;1988.07;999.90;;;;;;;21.05;61.46;98716.44;4152561;28;20519;-50
2022/08/31 01:33:53;;;;;;;1949.03;999.90;;;;;;;21.05;61.99;98722.81;4156197;28;20200;-49
2022/08/31 01:35:58;;;;;;;1810.93;999.90;;;;;;;21.08;62.95;98724.16;4169375;28;20230;-49
2022/08/31 01:38:01;;;;;;;1751.40;999.90;;;;;;;21.05;63.15;98722.81;4167800;28;20232;-49
2022/08/31 01:40:05;;;;;;;1812.70;999.90;;;;;;;21.03;63.44;98724.25;4171779;28;20662;-51
2022/08/31 01:42:07;;;;;;;1819.97;999.90;;;;;;;21.01;63.70;98726.53;4161194;28;20295;-49
2022/08/31 01:44:15;;;;;;;1803.00;999.90;;;;;;;21.00;64.02;98731.31;4186952;28;20616;-49
2022/08/31 01:46:16;;;;;;;1741.68;999.90;;;;;;;20.99;64.07;98735.19;4170835;28;20203;-50
2022/08/31 01:48:19;;;;;;;1896.25;999.90;;;;;;;20.96;64.45;98735.00;4155608;28;20258;-49
2022/08/31 01:50:21;;;;;;;1825.75;999.90;;;;;;;20.92;64.63;98731.22;4167616;28;20701;-50
2022/08/31 01:52:25;;;;;;;1847.18;992.97;;;;;;;20.88;64.58;98733.78;4159080;28;20330;-49
2022/08/31 01:54:28;;;;;;;1872.07;999.90;;;;;;;20.85;64.50;98744.69;4165193;28;20200;-49
2022/08/31 01:56:33;;;;;;;1706.50;999.90;;;;;;;20.85;64.50;98745.50;4184207;28;20222;-50
2022/08/31 01:58:35;;;;;;;1788.18;999.90;;;;;;;20.87;64.62;98742.41;4150605;28;20219;-49
2022/08/31 02:00:40;;;;;;;1808.20;999.90;;;;;;;20.83;64.43;98746.94;4167497;28;20258;-50
2022/08/31 02:02:42;;;;;;;1777.03;999.90;;;;;;;20.78;64.70;98750.66;4186743;28;20211;-49
2022/08/31 02:04:44;;;;;;;1714.25;999.90;;;;;;;20.74;64.72;98743.25;4160750;28;20228;-49
2022/08/31 02:06:49;;;;;;;1930.15;999.90;;;;;;;20.71;64.75;98749.44;4161924;28;20685;-49
2022/08/31 02:08:51;;;;;;;1805.85;999.90;;;;;;;20.70;65.01;98754.16;4154026;28;20209;-50
2022/08/31 02:10:52;;;;;;;1703.70;999.90;;;;;;;20.65;65.42;98745.13;4157535;28;20215;-49
2022/08/31 02:12:54;;;;;;;1785.20;927.30;;;;;;;20.64;65.76;98743.47;4169648;28;20211;-49
2022/08/31 02:14:56;;;;;;;1744.55;926.40;;;;;;;20.61;66.44;98755.19;4165687;28;20603;-49
2022/08/31 02:16:57;;;;;;;1999.90;999.90;;;;;;;20.61;66.44;98746.84;4139456;28;22369;-49
2022/08/31 02:22:21;;;;;;;1674.18;873.45;;;;;;;20.54;67.72;98738.09;4166550;28;20199;-49
2022/08/31 02:24:23;;;;;;;1999.90;999.90;;;;;;;20.52;67.76;98738.41;4157304;28;20632;-49
2022/08/31 02:26:25;;;;;;;1999.90;999.90;;;;;;;20.52;68.00;98743.16;4156420;28;20213;-50
2022/08/31 02:28:26;;;;;;;1999.90;999.90;;;;;;;20.42;68.59;98746.13;4151022;28;20224;-50
2022/08/31 02:30:28;;;;;;;1999.90;999.90;;;;;;;20.38;68.90;98745.91;4157671;28;20258;-49
2022/08/31 02:32:30;;;;;;;1999.90;999.90;;;;;;;20.37;69.08;98746.25;4158088;28;20271;-50
2022/08/31 02:34:31;;;;;;;1999.90;999.90;;;;;;;20.39;68.90;98746.75;4157032;28;20259;-50
2022/08/31 02:36:33;;;;;;;1999.90;999.90;;;;;;;20.39;69.54;98752.31;4154973;28;20208;-50
2022/08/31 02:38:37;;;;;;;1999.90;999.90;;;;;;;20.36;69.85;98742.63;4168951;28;20223;-50
2022/08/31 02:40:39;;;;;;;1999.90;999.90;;;;;;;20.36;69.89;98747.34;4167315;28;20804;-50
2022/08/31 02:42:41;;;;;;;1999.90;999.90;;;;;;;20.37;70.50;98743.47;4148082;28;20217;-49
2022/08/31 02:44:54;;;;;;;1999.90;999.90;;;;;;;20.33;70.48;98747.97;4153037;28;20244;-49
2022/08/31 02:46:56;;;;;;;1999.90;999.90;;;;;;;20.31;70.72;98741.91;4156142;28;20209;-49
2022/08/31 02:48:57;;;;;;;1999.90;999.90;;;;;;;20.33;70.80;98753.53;4154476;28;20205;-49
2022/08/31 02:51:05;;;;;;;1999.90;999.90;;;;;;;20.31;70.94;98750.25;4151424;28;20200;-50
2022/08/31 02:53:08;;;;;;;1999.90;999.90;;;;;;;20.30;70.90;98751.41;4158630;28;20223;-49
2022/08/31 02:55:10;;;;;;;1999.90;999.90;;;;;;;20.15;69.89;98762.78;4152818;28;20220;-49
2022/08/31 02:57:12;;;;;;;1999.90;999.90;;;;;;;20.10;69.92;98758.13;4164647;28;20263;-49
2022/08/31 02:59:13;;;;;;;1999.90;999.90;;;;;;;20.06;69.92;98759.06;4168367;28;20243;-50
2022/08/31 03:01:15;;;;;;;1999.90;999.90;;;;;;;20.04;70.02;98761.28;4171375;28;20612;-50
2022/08/31 03:03:17;;;;;;;1999.90;999.90;;;;;;;20.04;69.84;98758.50;4159455;28;20288;-49
2022/08/31 03:05:20;;;;;;;1999.90;999.90;;;;;;;20.02;69.61;98760.75;4159634;28;20678;-50
2022/08/31 03:07:22;;;;;;;1999.90;999.90;;;;;;;20.04;69.56;98761.28;4171814;28;20224;-50
2022/08/31 03:09:24;;;;;;;1999.90;999.90;;;;;;;20.06;69.26;98756.28;4170863;28;20711;-49
2022/08/31 03:11:26;;;;;;;1999.90;999.90;;;;;;;20.04;69.24;98758.50;4156829;28;20208;-50
2022/08/31 03:13:28;;;;;;;1999.90;999.90;;;;;;;20.05;69.50;98762.94;4168366;28;20270;-49
2022/08/31 03:15:30;;;;;;;1999.90;999.90;;;;;;;20.04;69.80;98758.50;4155373;28;20204;-49
2022/08/31 03:17:32;;;;;;;1999.90;999.90;;;;;;;20.09;69.47;98761.22;4157555;28;20319;-49
2022/08/31 03:19:34;;;;;;;1999.90;999.90;;;;;;;20.05;69.56;98760.16;4157870;28;20239;-48
2022/08/31 03:21:35;;;;;;;1999.90;999.90;;;;;;;20.04;70.50;98759.31;4158525;28;20216;-49
2022/08/31 03:23:37;;;;;;;1999.90;999.90;;;;;;;20.00;70.65;98760.25;4172161;28;20233;-49
2022/08/31 03:25:39;;;;;;;1999.90;999.90;;;;;;;19.93;70.87;98760.66;4184644;28;20254;-50
2022/08/31 03:27:41;;;;;;;1999.90;999.90;;;;;;;19.93;70.68;98759.81;4161518;28;20713;-49
2022/08/31 03:29:43;;;;;;;1999.90;999.90;;;;;;;19.96;70.46;98751.69;4153933;28;20620;-49
2022/08/31 03:31:44;;;;;;;1999.90;999.90;;;;;;;19.95;70.28;98752.00;4153373;28;20209;-49
2022/08/31 03:33:46;;;;;;;1999.90;999.90;;;;;;;19.92;69.99;98763.72;4158217;28;20208;-48
2022/08/31 03:35:48;;;;;;;1999.90;999.90;;;;;;;19.89;70.05;98761.53;4162995;28;20208;-49
2022/08/31 03:37:50;;;;;;;1999.90;999.90;;;;;;;19.88;69.78;98757.13;4168161;28;20252;-50
2022/08/31 03:39:52;;;;;;;1999.90;999.90;;;;;;;19.89;69.93;98758.75;4166324;28;20205;-49
2022/08/31 03:41:54;;;;;;;1999.90;999.90;;;;;;;19.86;69.77;98757.41;4171428;28;20203;-49
2022/08/31 03:43:55;;;;;;;1999.90;999.90;;;;;;;19.87;69.90;98756.31;4157614;28;20284;-49
2022/08/31 03:45:57;;;;;;;1999.90;999.90;;;;;;;19.88;69.76;98752.41;4155487;28;20220;-49
2022/08/31 03:47:59;;;;;;;1999.90;999.90;;;;;;;19.93;69.83;98768.16;4189165;28;20274;-49
2022/08/31 03:50:02;;;;;;;1999.90;999.90;;;;;;;19.94;70.57;98767.00;4156882;28;20205;-49
2022/08/31 03:52:04;;;;;;;1999.90;999.90;;;;;;;19.92;70.32;98769.28;4154661;28;20212;-49
2022/08/31 03:54:06;;;;;;;1999.90;999.90;;;;;;;19.90;70.68;98771.53;4158840;28;20211;-48
2022/08/31 03:56:08;;;;;;;1999.90;999.90;;;;;;;19.89;71.01;98767.09;4160406;28;20212;-49
2022/08/31 03:58:10;;;;;;;1999.90;999.90;;;;;;;19.87;71.66;98766.59;4152782;28;20229;-48
2022/08/31 04:00:12;;;;;;;1999.90;999.90;;;;;;;19.79;72.29;98770.06;4151775;28;20210;-49
2022/08/31 04:02:14;;;;;;;1999.90;999.90;;;;;;;19.73;72.55;98776.81;4168586;28;20206;-49
2022/08/31 04:04:16;;;;;;;1999.90;999.90;;;;;;;19.69;72.39;98773.81;4156055;28;20236;-48
2022/08/31 04:06:17;;;;;;;1999.90;999.90;;;;;;;19.66;72.81;98776.38;4138882;28;20228;-49
2022/08/31 04:08:20;;;;;;;1999.90;999.90;;;;;;;19.65;72.72;98774.75;4169790;28;20232;-49
2022/08/31 04:10:21;;;;;;;1999.90;999.90;;;;;;;19.66;72.44;98771.63;4160425;28;20264;-51
2022/08/31 04:12:23;;;;;;;1999.90;999.90;;;;;;;19.65;72.84;98775.53;4153044;28;20213;-49
2022/08/31 04:14:25;;;;;;;1999.90;999.90;;;;;;;19.67;72.57;98778.03;4142445;28;20284;-49
2022/08/31 04:16:26;;;;;;;1999.90;999.90;;;;;;;19.70;72.25;98780.19;4153969;28;20777;-49
2022/08/31 04:18:28;;;;;;;1999.90;999.90;;;;;;;19.69;72.77;98784.09;4170885;28;20274;-49
2022/08/31 04:20:39;;;;;;;1999.90;999.90;;;;;;;19.68;72.61;98783.28;4188351;28;20269;-49
2022/08/31 04:22:40;;;;;;;1999.90;999.90;;;;;;;19.67;72.90;98780.81;4161687;28;20208;-49
2022/08/31 04:24:42;;;;;;;1999.90;999.90;;;;;;;19.65;73.16;98783.06;4162364;28;20228;-49
2022/08/31 04:26:44;;;;;;;1999.90;999.90;;;;;;;19.63;73.06;98779.75;4153678;28;20693;-50
2022/08/31 04:28:46;;;;;;;1999.90;999.90;;;;;;;19.62;72.47;98784.50;4153912;28;20231;-49
2022/08/31 04:30:48;;;;;;;1999.90;999.90;;;;;;;19.63;72.44;98777.81;4160358;28;20197;-49
2022/08/31 04:32:52;;;;;;;1999.90;999.90;;;;;;;19.63;72.13;98785.31;4169970;28;20677;-48
2022/08/31 04:34:54;;;;;;;1999.90;999.90;;;;;;;19.59;71.76;98782.31;4168355;28;20239;-50
2022/08/31 04:36:57;;;;;;;1999.90;999.90;;;;;;;19.60;71.32;98780.38;4184860;28;20211;-49
2022/08/31 04:39:00;;;;;;;1999.90;999.90;;;;;;;19.60;71.11;98794.25;4168172;28;20816;-49
2022/08/31 04:41:08;;;;;;;1999.90;999.90;;;;;;;19.65;70.38;98791.41;4150327;28;20251;-49
2022/08/31 04:43:10;;;;;;;1494.13;753.67;;;;;;;19.60;69.83;98794.25;4153363;28;20286;-48
2022/08/31 04:45:12;;;;;;;1999.90;999.90;;;;;;;19.60;69.69;98800.63;4185108;28;20246;-49
2022/08/31 04:47:14;;;;;;;1999.90;999.90;;;;;;;19.61;69.42;98798.66;4150264;28;20225;-48
2022/08/31 04:49:16;;;;;;;1999.90;999.90;;;;;;;19.62;69.19;98794.75;4155211;28;20253;-49
2022/08/31 04:51:21;;;;;;;1999.90;999.90;;;;;;;19.63;69.11;98799.19;4159489;28;20328;-49
2022/08/31 04:53:22;;;;;;;1999.90;999.90;;;;;;;19.61;69.33;98807.00;4151677;28;20292;-49
2022/08/31 04:55:24;;;;;;;1999.90;999.90;;;;;;;19.63;69.11;98801.97;4186723;28;20657;-49
2022/08/31 04:57:28;;;;;;;1598.72;831.17;;;;;;;19.62;68.92;98814.19;4150873;28;20232;-49
2022/08/31 04:59:29;;;;;;;1739.28;878.83;;;;;;;19.63;69.21;98813.91;4151764;28;20315;-49
2022/08/31 05:01:34;;;;;;;1448.25;722.70;;;;;;;19.61;69.56;98810.63;4166673;28;20637;-50
2022/08/31 05:03:42;;;;;;;1999.90;999.90;;;;;;;19.61;69.18;98815.34;4152981;28;20255;-49
2022/08/31 05:05:51;;;;;;;1636.72;849.05;;;;;;;19.59;69.16;98812.03;4155409;28;20307;-49
2022/08/31 05:07:53;;;;;;;1999.90;999.90;;;;;;;19.60;69.04;98813.69;4169826;28;20332;-49
2022/08/31 05:09:55;;;;;;;1504.07;799.28;;;;;;;19.61;68.94;98823.66;4151827;28;20213;-49
2022/08/31 05:11:57;;;;;;;1999.90;999.90;;;;;;;19.60;69.23;98822.00;4156414;28;20209;-49
2022/08/31 05:14:01;;;;;;;1999.90;999.90;;;;;;;19.64;69.03;98828.63;4160539;28;20209;-49
2022/08/31 05:16:08;;;;;;;1999.90;999.90;;;;;;;19.59;69.08;98818.41;4159183;28;20216;-49
2022/08/31 05:18:10;;;;;;;1584.25;818.95;;;;;;;19.60;69.24;98822.00;4151707;28;20231;-49
2022/08/31 05:20:12;;;;;;;1999.90;999.90;;;;;;;19.60;69.02;98827.56;4167930;28;20234;-49
2022/08/31 05:22:14;;;;;;;1999.90;999.90;;;;;;;19.60;68.86;98833.97;4154083;28;20205;-49
2022/08/31 05:24:20;;;;;;;1286.10;673.17;;;;;;;19.60;68.99;98830.34;4152587;28;20638;-49
2022/08/31 05:26:25;;;;;;;1999.90;999.90;;;;;;;19.60;68.84;98831.19;4168787;28;20597;-49
2022/08/31 05:28:27;;;;;;;1999.90;999.90;;;;;;;19.62;68.98;98830.88;4145096;28;20260;-49
2022/08/31 05:30:29;;;;;;;1999.90;999.90;;;;;;;19.60;69.17;98833.13;4159755;28;20701;-49
2022/08/31 05:32:30;;;;;;;1999.90;999.90;;;;;;;19.60;69.62;98833.13;4160118;28;20246;-48
2022/08/31 05:34:34;;;;;;;1999.90;999.90;;;;;;;19.55;70.53;98835.97;4159849;28;20631;-48
2022/08/31 05:36:36;;;;;;;1999.90;999.90;;;;;;;19.50;70.17;98834.09;4160282;28;20247;-49
2022/08/31 05:38:38;;;;;;;1999.90;999.90;;;;;;;19.49;70.08;98837.16;4157851;28;20788;-50
2022/08/31 05:40:40;;;;;;;1999.90;999.90;;;;;;;19.50;69.84;98849.91;4171091;28;20616;-49
2022/08/31 05:42:41;;;;;;;1999.90;999.90;;;;;;;19.51;69.39;98848.81;4144121;28;20209;-49
2022/08/31 05:44:43;;;;;;;1999.90;999.90;;;;;;;19.50;69.52;98845.19;4156895;28;20208;-49
2022/08/31 05:46:46;;;;;;;1999.90;999.90;;;;;;;19.47;69.23;98850.53;4154576;28;20271;-48
2022/08/31 05:49:01;;;;;;;1999.90;999.90;;;;;;;19.44;69.07;98845.59;4169403;28;20740;-49
2022/08/31 05:51:06;;;;;;;1999.90;999.90;;;;;;;19.45;68.80;98848.03;4152686;28;20694;-49
2022/08/31 05:53:11;;;;;;;1587.05;818.80;;;;;;;19.45;68.87;98852.78;4154318;28;20288;-48
2022/08/31 05:55:14;;;;;;;1999.90;999.90;;;;;;;19.47;68.94;98853.31;4155849;28;20201;-50
2022/08/31 05:57:15;;;;;;;1999.90;999.90;;;;;;;19.39;68.23;98859.53;4152018;28;20224;-49
2022/08/31 05:59:17;;;;;;;1498.65;754.97;;;;;;;19.43;68.57;98866.97;4153467;28;20208;-49
2022/08/31 06:01:22;;;;;;;1999.90;999.90;;;;;;;19.41;68.97;98868.38;4167752;28;20200;-48
2022/08/31 06:03:24;;;;;;;1999.90;999.90;;;;;;;19.42;69.15;98864.47;4185687;28;20715;-48
2022/08/31 06:05:27;;;;;;;1999.90;999.90;;;;;;;19.45;69.18;98880.56;4156014;28;20668;-48
2022/08/31 06:07:29;;;;;;;1364.55;689.65;;;;;;;19.46;69.37;98874.69;4152093;28;20237;-48
2022/08/31 06:09:30;;;;;;;1999.90;999.90;;;;;;;19.43;69.20;98878.06;4153353;28;20228;-49
2022/08/31 06:11:33;;;;;;;1706.07;850.47;;;;;;;19.44;69.34;98884.47;4156672;28;20220;-48
2022/08/31 06:13:35;;;;;;;1999.90;999.90;;;;;;;19.41;69.70;98882.25;4169154;28;20204;-49
2022/08/31 06:15:37;;;;;;;1999.90;999.90;;;;;;;19.41;70.17;98885.03;4160695;28;20208;-49
2022/08/31 06:17:43;;;;;;;1999.90;999.90;;;;;;;19.46;70.00;98879.41;4158838;28;20224;-49
2022/08/31 06:19:45;;;;;;;1999.90;999.90;;;;;;;19.51;70.00;98873.81;4152165;28;20213;-49
2022/08/31 06:21:48;;;;;;;1999.90;999.90;;;;;;;19.54;70.48;98890.69;4154348;28;20200;-49
2022/08/31 06:23:52;;;;;;;1999.90;999.90;;;;;;;19.58;70.92;98875.06;4181852;28;20216;-49
2022/08/31 06:26:01;;;;;;;1999.90;999.90;;;;;;;19.66;70.58;98879.13;4160108;28;20224;-49
2022/08/31 06:28:05;;;;;;;1999.90;999.90;;;;;;;19.63;69.77;98876.94;4159699;28;20255;-48
2022/08/31 06:30:07;;;;;;;1999.90;999.90;;;;;;;19.67;69.93;98869.66;4168690;28;20212;-50
2022/08/31 06:32:12;;;;;;;1999.90;999.90;;;;;;;19.73;69.66;98866.53;4157034;28;20221;-48
2022/08/31 06:34:16;;;;;;;1999.90;999.90;;;;;;;19.79;70.30;98881.97;4159806;28;20645;-49
2022/08/31 06:36:19;;;;;;;1999.90;999.90;;;;;;;19.82;70.12;98875.00;4162411;28;20212;-49
2022/08/31 06:38:21;;;;;;;1999.90;999.90;;;;;;;19.86;70.92;98876.06;4171157;28;20709;-49
2022/08/31 06:40:25;;;;;;;1999.90;999.90;;;;;;;19.85;70.61;98874.41;4161196;28;20374;-49
2022/08/31 06:42:28;;;;;;;1999.90;999.90;;;;;;;19.94;70.72;98872.59;4157658;28;20244;-49
2022/08/31 06:44:30;;;;;;;1999.90;999.90;;;;;;;19.99;70.51;98878.88;4143228;28;20573;-49
2022/08/31 06:46:32;;;;;;;1999.90;999.90;;;;;;;19.89;69.79;98876.28;4162359;28;20231;-49
2022/08/31 06:48:34;;;;;;;1999.90;999.90;;;;;;;19.96;70.79;98882.28;4186372;28;20231;-49
2022/08/31 06:50:39;;;;;;;1999.90;999.90;;;;;;;20.02;71.53;98881.06;4155450;28;20209;-49
2022/08/31 06:52:40;;;;;;;1999.90;999.90;;;;;;;20.04;72.61;98883.56;4155464;28;20204;-50
2022/08/31 06:54:42;;;;;;;1999.90;999.90;;;;;;;20.10;72.34;98882.38;4156718;28;20205;-48
2022/08/31 06:56:44;;;;;;;1999.90;999.90;;;;;;;20.11;72.86;98884.84;4157577;28;20248;-49
2022/08/31 06:58:45;;;;;;;1999.90;999.90;;;;;;;20.11;72.76;98887.63;4159852;28;21052;-49
2022/08/31 07:00:57;;;;;;;1999.90;999.90;;;;;;;20.14;72.52;98884.25;4157254;28;20205;-49
2022/08/31 07:03:21;;;;;;;1999.90;999.90;;;;;;;20.14;73.61;98889.81;4160979;28;20629;-50
2022/08/31 07:05:20;;;;;;;1999.90;999.90;;;;;;;20.10;71.88;98890.72;4173094;28;20211;-49
2022/08/31 07:07:25;;;;;;;1999.90;999.90;;;;;;;20.18;73.06;98885.28;4161451;28;20252;-49
2022/08/31 07:09:27;;;;;;;1999.90;999.90;;;;;;;20.24;73.27;98888.81;4155452;28;20298;-49
2022/08/31 07:11:33;;;;;;;1999.90;999.90;;;;;;;20.26;72.25;98876.25;4140088;28;20328;-49
2022/08/31 07:13:35;;;;;;;1999.90;999.90;;;;;;;20.34;72.82;98880.28;4156870;28;20888;-50
2022/08/31 07:15:36;;;;;;;1999.90;999.90;;;;;;;20.42;72.51;98890.72;4170625;28;20761;-49
2022/08/31 07:17:38;;;;;;;1999.90;999.90;;;;;;;20.45;72.44;98890.94;4155036;28;20278;-48
2022/08/31 07:19:40;;;;;;;1999.90;999.90;;;;;;;20.48;72.91;98889.50;4160229;28;20209;-49
2022/08/31 07:21:48;;;;;;;1999.90;999.90;;;;;;;20.53;71.92;98894.97;4158275;28;20598;-49
2022/08/31 07:23:50;;;;;;;1999.90;999.90;;;;;;;20.59;72.30;98891.78;4167277;28;20255;-49
2022/08/31 07:25:52;;;;;;;1999.90;999.90;;;;;;;20.66;71.69;98891.41;4155283;28;20251;-49
2022/08/31 07:27:54;;;;;;;1999.90;999.90;;;;;;;20.71;71.00;98889.34;4153688;28;20217;-49
2022/08/31 07:29:59;;;;;;;1999.90;999.90;;;;;;;20.84;71.01;98893.28;4170619;28;20263;-48
2022/08/31 07:32:01;;;;;;;1999.90;999.90;;;;;;;20.83;70.36;98892.47;4168958;28;20673;-49
2022/08/31 07:34:06;;;;;;;1999.90;999.90;;;;;;;20.84;70.73;98887.72;4155537;28;20626;-49
2022/08/31 07:36:11;;;;;;;1999.90;999.90;;;;;;;20.79;69.98;98893.38;4168875;28;20212;-48
2022/08/31 07:42:54;;;;;;;1999.90;999.90;;;;;;;21.26;68.65;98887.47;4173161;28;20204;-50
2022/08/31 07:44:57;;;;;;;1999.90;999.90;;;;;;;21.25;68.49;98894.97;4154106;28;20213;-49
2022/08/31 07:47:04;;;;;;;1999.90;999.90;;;;;;;21.23;68.67;98890.88;4170199;28;20704;-49
2022/08/31 07:49:12;;;;;;;1999.90;999.90;;;;;;;21.31;68.58;98904.06;4156516;28;20299;-49
2022/08/31 07:51:16;;;;;;;1999.90;999.90;;;;;;;21.31;68.65;98890.97;4156250;28;20655;-49
2022/08/31 07:53:19;;;;;;;1714.00;846.90;;;;;;;21.47;67.88;98899.81;4186175;28;20204;-51
2022/08/31 07:55:25;;;;;;;1999.90;999.90;;;;;;;21.45;68.08;98896.53;4160001;28;20271;-49
2022/08/31 07:57:28;;;;;;;1279.55;651.75;;;;;;;21.41;69.02;98909.41;4154658;28;20228;-49
2022/08/31 07:59:32;;;;;;;1999.90;999.90;;;;;;;21.39;68.76;98906.13;4159305;28;20204;-49
2022/08/31 08:01:36;;;;;;;1999.90;999.90;;;;;;;21.35;69.23;98910.66;4172381;28;20290;-49
2022/08/31 08:03:42;;;;;;;1999.90;999.90;;;;;;;21.40;68.79;98907.75;4154685;28;20704;-50
2022/08/31 08:05:46;;;;;;;1999.90;999.90;;;;;;;21.44;69.19;98909.63;4174621;28;20358;-49
2022/08/31 08:07:50;;;;;;;1999.90;999.90;;;;;;;21.28;68.69;98915.81;4165004;28;20223;-49
2022/08/31 08:09:55;;;;;;;1842.75;955.58;;;;;;;21.24;66.13;98910.03;4186099;28;21608;-48
2022/08/31 08:12:05;;;;;;;1906.22;999.90;;;;;;;21.31;65.39;98915.22;4153335;28;20235;-49
2022/08/31 08:14:07;;;;;;;1967.10;999.90;;;;;;;21.20;64.07;98924.91;4156482;28;20244;-49
2022/08/31 08:16:09;;;;;;;1863.32;974.88;;;;;;;21.24;64.92;98928.72;4158689;28;20269;-49
2022/08/31 08:18:12;;;;;;;1598.30;882.78;;;;;;;21.13;65.04;98930.03;4154359;28;20231;-49
2022/08/31 08:20:14;;;;;;;1822.25;999.90;;;;;;;21.16;64.68;98932.19;4168306;28;20290;-48
2022/08/31 08:22:16;;;;;;;1830.82;998.03;;;;;;;21.01;65.56;98932.50;4155063;28;20205;-49
2022/08/31 08:24:38;;;;;;;1685.38;940.60;;;;;;;20.88;65.31;98934.13;4153090;28;20603;-50
2022/08/31 08:26:43;;;;;;;1577.82;889.00;;;;;;;20.96;65.15;98933.44;4170880;28;20228;-52
2022/08/31 08:28:45;;;;;;;1683.80;890.58;;;;;;;21.12;65.24;98934.78;4160982;28;20300;-53
2022/08/31 08:30:53;;;;;;;1853.20;946.97;;;;;;;21.25;65.17;98938.72;4155166;28;20701;-52
2022/08/31 08:33:02;;;;;;;1856.55;944.28;;;;;;;21.33;65.07;98935.22;4183697;28;20775;-52
2022/08/31 08:35:04;;;;;;;1999.90;999.90;;;;;;;21.46;64.83;98937.16;4155376;28;20209;-53
2022/08/31 08:37:06;;;;;;;1606.47;907.42;;;;;;;21.49;64.36;98933.75;4159022;28;20240;-52
2022/08/31 08:39:09;;;;;;;1999.90;999.90;;;;;;;21.52;64.18;98941.50;4151522;28;20216;-52
2022/08/31 08:41:18;;;;;;;1783.93;989.15;;;;;;;21.67;64.07;98943.97;4169297;28;20209;-53
2022/08/31 08:43:28;;;;;;;1999.90;999.90;;;;;;;21.72;63.54;98938.31;4152761;28;20754;-52
2022/08/31 08:45:32;;;;;;;1901.78;999.90;;;;;;;21.58;63.55;98937.47;4185101;28;20226;-53
2022/08/31 08:47:35;;;;;;;1633.18;934.47;;;;;;;21.65;64.11;98935.09;4154085;28;20268;-53
2022/08/31 08:49:44;;;;;;;1731.60;986.45;;;;;;;21.59;63.45;98933.53;4154285;28;20212;-52
2022/08/31 08:51:49;;;;;;;1769.38;999.90;;;;;;;21.71;63.07;98936.66;4167720;28;20232;-52
2022/08/31 08:53:55;;;;;;;1782.97;998.88;;;;;;;21.74;63.42;98938.81;4169939;28;20208;-52
2022/08/31 08:55:57;;;;;;;1559.20;844.63;;;;;;;21.93;63.84;98942.28;4151502;28;20231;-52
2022/08/31 08:58:19;;;;;;;1886.18;995.53;;;;;;;21.96;63.52;98952.81;4155649;28;20326;-53
2022/08/31 09:00:24;;;;;;;1913.10;999.90;;;;;;;22.01;63.00;98947.13;4185364;28;20215;-52
2022/08/31 09:02:30;;;;;;;1853.03;999.90;;;;;;;21.91;62.52;98942.59;4153316;28;20250;-53
2022/08/31 09:04:48;;;;;;;1999.90;999.90;;;;;;;21.89;62.90;98944.03;4151504;28;20216;-53
2022/08/31 09:07:22;;;;;;;1918.57;999.90;;;;;;;21.74;63.21;98948.00;4149066;28;20240;-51
2022/08/31 09:09:31;;;;;;;1921.97;999.90;;;;;;;21.53;64.07;98951.50;4187482;28;20218;-52
2022/08/31 09:12:03;;;;;;;1895.90;999.90;;;;;;;21.50;64.10;98946.56;4169121;28;20223;-52
2022/08/31 09:14:41;;;;;;;1799.20;981.63;;;;;;;21.58;64.34;98956.97;4183265;28;20198;-52
2022/08/31 09:16:56;;;;;;;1895.93;979.20;;;;;;;21.61;64.46;98964.69;4185057;28;20215;-53
2022/08/31 09:19:10;;;;;;;1999.90;999.90;;;;;;;21.70;65.16;98962.88;4155846;28;20208;-53
2022/08/31 09:21:24;;;;;;;1703.95;887.67;;;;;;;21.54;64.82;98964.28;4150801;28;20562;-52
2022/08/31 09:23:26;;;;;;;1999.90;999.90;;;;;;;21.61;65.83;98954.38;4152962;28;20334;-53